Terminal Aerodrome Forecast
Issued by NWS

Current Version | Previous Version | Text Only | Print | Product List | Glossary On
Versions: 1 2 3 4 5 6 7 8 9 10 11 12 13
000
FTUS46 KHNX 130500
TAFMER
TAF
KMER 130526Z 1306/1406 03008KT P6SM SKC
     FM131000 35004KT P6SM SKC
     FM132100 32011KT P6SM SKC=

USA.gov is the U.S. government's official web portal to all federal, state and local government web resources and services.